sensor_id;sensor_type;location;lat;lon;timestamp;pressure;altitude;pressure_sealevel;temperature;humidity
54248;BME280;40161;39.768;2.722;2023-02-02T00:01:43;102591.28;;;4.85;98.51
54248;BME280;40161;39.768;2.722;2023-02-02T00:04:18;102573.47;;;4.63;99.09
54248;BME280;40161;39.768;2.722;2023-02-02T00:06:45;102584.09;;;4.65;100.00
54248;BME280;40161;39.768;2.722;2023-02-02T00:09:13;102565.38;;;4.58;100.00
54248;BME280;40161;39.768;2.722;2023-02-02T00:11:42;102579.22;;;4.57;100.00
54248;BME280;40161;39.768;2.722;2023-02-02T00:14:08;102582.78;;;4.52;100.00
54248;BME280;40161;39.768;2.722;2023-02-02T00:16:36;102578.97;;;4.53;100.00
54248;BME280;40161;39.768;2.722;2023-02-02T00:19:13;102578.00;;;4.83;100.00
54248;BME280;40161;39.768;2.722;2023-02-02T00:21:40;102572.47;;;4.93;100.00
54248;BME280;40161;39.768;2.722;2023-02-02T00:24:08;102580.22;;;4.76;97.58
54248;BME280;40161;39.768;2.722;2023-02-02T00:26:34;102557.00;;;4.39;98.08
54248;BME280;40161;39.768;2.722;2023-02-02T00:29:00;102566.78;;;4.40;99.79
54248;BME280;40161;39.768;2.722;2023-02-02T00:31:25;102570.28;;;4.51;100.00
54248;BME280;40161;39.768;2.722;2023-02-02T00:33:52;102581.38;;;4.60;100.00
54248;BME280;40161;39.768;2.722;2023-02-02T00:36:19;102556.75;;;4.36;99.85
54248;BME280;40161;39.768;2.722;2023-02-02T00:38:47;102570.94;;;4.22;100.00
54248;BME280;40161;39.768;2.722;2023-02-02T00:41:13;102565.97;;;4.40;100.00
54248;BME280;40161;39.768;2.722;2023-02-02T00:43:38;102546.75;;;4.31;100.00
54248;BME280;40161;39.768;2.722;2023-02-02T00:46:13;102557.00;;;4.44;100.00
54248;BME280;40161;39.768;2.722;2023-02-02T00:48:42;102553.88;;;4.71;100.00
54248;BME280;40161;39.768;2.722;2023-02-02T00:51:08;102558.97;;;4.78;100.00
54248;BME280;40161;39.768;2.722;2023-02-02T00:53:34;102546.09;;;4.94;99.96
54248;BME280;40161;39.768;2.722;2023-02-02T00:56:03;102552.63;;;4.93;98.48
54248;BME280;40161;39.768;2.722;2023-02-02T00:58:30;102559.22;;;4.82;96.47
54248;BME280;40161;39.768;2.722;2023-02-02T01:00:55;102549.25;;;4.17;97.12
54248;BME280;40161;39.768;2.722;2023-02-02T01:03:21;102545.47;;;4.08;99.73
54248;BME280;40161;39.768;2.722;2023-02-02T01:05:46;102552.38;;;4.40;100.00
54248;BME280;40161;39.768;2.722;2023-02-02T01:08:15;102546.34;;;4.53;100.00
54248;BME280;40161;39.768;2.722;2023-02-02T01:10:41;102550.41;;;4.50;100.00
54248;BME280;40161;39.768;2.722;2023-02-02T01:13:08;102536.25;;;4.59;100.00
54248;BME280;40161;39.768;2.722;2023-02-02T01:15:33;102540.31;;;4.61;99.82
54248;BME280;40161;39.768;2.722;2023-02-02T01:18:00;102545.72;;;4.71;100.00
54248;BME280;40161;39.768;2.722;2023-02-02T01:20:26;102539.00;;;4.53;99.78
54248;BME280;40161;39.768;2.722;2023-02-02T01:22:51;102543.63;;;4.53;99.34
54248;BME280;40161;39.768;2.722;2023-02-02T01:25:18;102546.13;;;4.44;99.95
54248;BME280;40161;39.768;2.722;2023-02-02T01:27:44;102532.47;;;4.00;98.83
54248;BME280;40161;39.768;2.722;2023-02-02T01:30:12;102541.91;;;4.18;100.00
54248;BME280;40161;39.768;2.722;2023-02-02T01:32:38;102514.22;;;4.05;100.00
54248;BME280;40161;39.768;2.722;2023-02-02T01:35:05;102542.38;;;4.30;100.00
54248;BME280;40161;39.768;2.722;2023-02-02T01:37:31;102540.69;;;4.44;100.00
54248;BME280;40161;39.768;2.722;2023-02-02T01:39:57;102538.16;;;4.58;100.00
54248;BME280;40161;39.768;2.722;2023-02-02T01:42:25;102528.34;;;4.62;99.96
54248;BME280;40161;39.768;2.722;2023-02-02T01:45:20;102495.16;;;4.60;99.15
54248;BME280;40161;39.768;2.722;2023-02-02T01:47:51;102518.03;;;4.54;95.89
54248;BME280;40161;39.768;2.722;2023-02-02T01:50:37;102511.69;;;4.24;98.07
54248;BME280;40161;39.768;2.722;2023-02-02T01:53:04;102529.16;;;4.13;97.87
54248;BME280;40161;39.768;2.722;2023-02-02T01:55:31;102517.81;;;3.96;100.00
54248;BME280;40161;39.768;2.722;2023-02-02T01:58:05;102512.06;;;4.02;100.00
54248;BME280;40161;39.768;2.722;2023-02-02T02:00:35;102506.13;;;3.90;100.00
54248;BME280;40161;39.768;2.722;2023-02-02T02:03:07;102526.47;;;3.98;100.00
54248;BME280;40161;39.768;2.722;2023-02-02T02:06:02;102524.53;;;4.09;100.00
54248;BME280;40161;39.768;2.722;2023-02-02T02:08:56;102515.03;;;4.11;100.00
54248;BME280;40161;39.768;2.722;2023-02-02T02:11:25;102508.56;;;3.97;100.00
54248;BME280;40161;39.768;2.722;2023-02-02T02:13:52;102512.97;;;3.83;100.00
54248;BME280;40161;39.768;2.722;2023-02-02T02:17:09;102493.72;;;3.64;100.00
54248;BME280;40161;39.768;2.722;2023-02-02T02:29:22;102507.22;;;3.94;99.22
54248;BME280;40161;39.768;2.722;2023-02-02T02:32:07;102498.34;;;3.68;99.99
54248;BME280;40161;39.768;2.722;2023-02-02T02:37:53;102479.59;;;3.67;100.00
54248;BME280;40161;39.768;2.722;2023-02-02T02:40:33;102494.50;;;3.79;100.00
54248;BME280;40161;39.768;2.722;2023-02-02T02:43:17;102491.75;;;3.90;100.00
54248;BME280;40161;39.768;2.722;2023-02-02T02:45:44;102488.94;;;4.10;100.00
54248;BME280;40161;39.768;2.722;2023-02-02T02:48:10;102483.00;;;3.98;99.20
54248;BME280;40161;39.768;2.722;2023-02-02T02:50:36;102488.22;;;3.84;98.30
54248;BME280;40161;39.768;2.722;2023-02-02T02:53:12;102486.66;;;3.68;98.85
54248;BME280;40161;39.768;2.722;2023-02-02T02:55:53;102486.38;;;3.64;100.00
54248;BME280;40161;39.768;2.722;2023-02-02T02:58:35;102477.44;;;3.64;100.00
54248;BME280;40161;39.768;2.722;2023-02-02T03:01:23;102483.31;;;3.91;100.00
54248;BME280;40161;39.768;2.722;2023-02-02T03:03:59;102478.16;;;3.90;100.00
54248;BME280;40161;39.768;2.722;2023-02-02T03:06:37;102486.56;;;3.93;100.00
54248;BME280;40161;39.768;2.722;2023-02-02T03:09:11;102474.91;;;3.93;100.00
54248;BME280;40161;39.768;2.722;2023-02-02T03:11:40;102477.22;;;4.15;100.00
54248;BME280;40161;39.768;2.722;2023-02-02T03:14:06;102447.91;;;4.12;100.00
54248;BME280;40161;39.768;2.722;2023-02-02T03:16:35;102477.56;;;4.03;97.39
54248;BME280;40161;39.768;2.722;2023-02-02T03:19:02;102466.88;;;3.62;96.41
54248;BME280;40161;39.768;2.722;2023-02-02T03:21:29;102482.34;;;3.56;98.03
54248;BME280;40161;39.768;2.722;2023-02-02T03:23:54;102457.41;;;3.44;99.60
54248;BME280;40161;39.768;2.722;2023-02-02T03:26:20;102482.03;;;3.73;100.00
54248;BME280;40161;39.768;2.722;2023-02-02T03:28:47;102473.91;;;3.63;99.57
54248;BME280;40161;39.768;2.722;2023-02-02T03:31:13;102453.84;;;3.54;100.00
54248;BME280;40161;39.768;2.722;2023-02-02T03:33:39;102472.56;;;3.61;99.78
54248;BME280;40161;39.768;2.722;2023-02-02T03:36:05;102471.94;;;3.84;100.00
54248;BME280;40161;39.768;2.722;2023-02-02T03:38:31;102476.81;;;3.92;100.00
54248;BME280;40161;39.768;2.722;2023-02-02T03:40:56;102473.50;;;4.00;100.00
54248;BME280;40161;39.768;2.722;2023-02-02T03:43:23;102474.97;;;3.72;97.14
54248;BME280;40161;39.768;2.722;2023-02-02T03:45:56;102471.50;;;3.51;99.81
54248;BME280;40161;39.768;2.722;2023-02-02T03:48:22;102482.91;;;3.48;99.51
54248;BME280;40161;39.768;2.722;2023-02-02T03:50:47;102462.53;;;3.51;100.00
54248;BME280;40161;39.768;2.722;2023-02-02T03:53:13;102477.44;;;3.64;100.00
54248;BME280;40161;39.768;2.722;2023-02-02T03:55:38;102466.63;;;3.43;100.00
54248;BME280;40161;39.768;2.722;2023-02-02T03:58:05;102458.75;;;3.52;100.00
54248;BME280;40161;39.768;2.722;2023-02-02T04:00:31;102473.22;;;4.02;100.00
54248;BME280;40161;39.768;2.722;2023-02-02T04:02:57;102477.63;;;3.88;100.00
54248;BME280;40161;39.768;2.722;2023-02-02T04:05:23;102464.59;;;3.85;100.00
54248;BME280;40161;39.768;2.722;2023-02-02T04:07:49;102465.75;;;3.63;97.52
54248;BME280;40161;39.768;2.722;2023-02-02T04:10:16;102468.53;;;3.43;98.52
54248;BME280;40161;39.768;2.722;2023-02-02T04:12:42;102446.59;;;3.29;99.85
54248;BME280;40161;39.768;2.722;2023-02-02T04:15:08;102469.84;;;3.61;100.00
54248;BME280;40161;39.768;2.722;2023-02-02T04:17:33;102470.69;;;3.56;100.00
54248;BME280;40161;39.768;2.722;2023-02-02T04:20:00;102472.34;;;3.26;98.10
54248;BME280;40161;39.768;2.722;2023-02-02T04:22:25;102455.56;;;3.14;100.00
54248;BME280;40161;39.768;2.722;2023-02-02T04:24:51;102474.47;;;3.60;100.00
54248;BME280;40161;39.768;2.722;2023-02-02T04:27:16;102482.88;;;3.53;100.00
54248;BME280;40161;39.768;2.722;2023-02-02T04:29:42;102490.53;;;3.36;100.00
54248;BME280;40161;39.768;2.722;2023-02-02T04:32:08;102466.59;;;3.53;100.00
54248;BME280;40161;39.768;2.722;2023-02-02T04:34:34;102432.78;;;3.15;100.00
54248;BME280;40161;39.768;2.722;2023-02-02T04:36:59;102463.94;;;3.38;99.94
54248;BME280;40161;39.768;2.722;2023-02-02T04:39:25;102483.44;;;3.55;100.00
54248;BME280;40161;39.768;2.722;2023-02-02T04:41:50;102489.63;;;3.76;100.00
54248;BME280;40161;39.768;2.722;2023-02-02T04:44:16;102477.78;;;3.37;99.35
54248;BME280;40161;39.768;2.722;2023-02-02T04:46:42;102483.19;;;3.52;100.00
54248;BME280;40161;39.768;2.722;2023-02-02T04:49:09;102460.97;;;3.29;100.00
54248;BME280;40161;39.768;2.722;2023-02-02T04:51:36;102485.34;;;3.55;100.00
54248;BME280;40161;39.768;2.722;2023-02-02T04:54:02;102456.84;;;3.47;100.00
54248;BME280;40161;39.768;2.722;2023-02-02T04:56:28;102488.78;;;3.81;100.00
54248;BME280;40161;39.768;2.722;2023-02-02T04:58:53;102486.13;;;3.66;100.00
54248;BME280;40161;39.768;2.722;2023-02-02T05:01:21;102475.53;;;3.69;100.00
54248;BME280;40161;39.768;2.722;2023-02-02T05:03:48;102496.53;;;4.13;97.31
54248;BME280;40161;39.768;2.722;2023-02-02T05:06:14;102441.69;;;3.41;95.24
54248;BME280;40161;39.768;2.722;2023-02-02T05:08:40;102479.66;;;3.46;96.81
54248;BME280;40161;39.768;2.722;2023-02-02T05:11:12;102496.72;;;3.62;97.49
54248;BME280;40161;39.768;2.722;2023-02-02T05:13:39;102489.69;;;3.46;98.14
54248;BME280;40161;39.768;2.722;2023-02-02T05:16:05;102487.25;;;3.54;99.90
54248;BME280;40161;39.768;2.722;2023-02-02T05:18:31;102475.59;;;3.49;99.96
54248;BME280;40161;39.768;2.722;2023-02-02T05:21:01;102489.91;;;3.65;99.89
54248;BME280;40161;39.768;2.722;2023-02-02T05:23:30;102483.16;;;3.57;98.53
54248;BME280;40161;39.768;2.722;2023-02-02T05:25:56;102492.69;;;3.49;100.00
54248;BME280;40161;39.768;2.722;2023-02-02T05:28:22;102488.59;;;3.57;100.00
54248;BME280;40161;39.768;2.722;2023-02-02T05:30:48;102492.41;;;3.46;99.93
54248;BME280;40161;39.768;2.722;2023-02-02T05:33:14;102488.91;;;3.45;99.29
54248;BME280;40161;39.768;2.722;2023-02-02T05:35:47;102492.44;;;3.36;99.40
54248;BME280;40161;39.768;2.722;2023-02-02T05:38:13;102505.44;;;3.49;100.00
54248;BME280;40161;39.768;2.722;2023-02-02T05:40:38;102456.06;;;3.26;100.00
54248;BME280;40161;39.768;2.722;2023-02-02T05:43:04;102499.41;;;3.67;100.00
54248;BME280;40161;39.768;2.722;2023-02-02T05:45:29;102506.53;;;3.58;99.42
54248;BME280;40161;39.768;2.722;2023-02-02T05:47:55;102510.88;;;3.23;99.16
54248;BME280;40161;39.768;2.722;2023-02-02T05:50:21;102509.28;;;3.27;100.00
54248;BME280;40161;39.768;2.722;2023-02-02T05:52:47;102498.13;;;3.39;100.00
54248;BME280;40161;39.768;2.722;2023-02-02T05:55:13;102507.59;;;3.57;100.00
54248;BME280;40161;39.768;2.722;2023-02-02T05:57:38;102491.31;;;3.52;100.00
54248;BME280;40161;39.768;2.722;2023-02-02T06:00:05;102501.69;;;3.35;99.27
54248;BME280;40161;39.768;2.722;2023-02-02T06:02:30;102500.03;;;3.39;98.73
54248;BME280;40161;39.768;2.722;2023-02-02T06:04:56;102500.59;;;3.25;99.74
54248;BME280;40161;39.768;2.722;2023-02-02T06:07:21;102508.97;;;3.49;100.00
54248;BME280;40161;39.768;2.722;2023-02-02T06:09:47;102507.88;;;3.55;100.00
54248;BME280;40161;39.768;2.722;2023-02-02T06:12:13;102496.72;;;3.62;98.96
54248;BME280;40161;39.768;2.722;2023-02-02T06:14:38;102500.88;;;3.24;96.42
54248;BME280;40161;39.768;2.722;2023-02-02T06:17:04;102501.16;;;3.17;98.66
54248;BME280;40161;39.768;2.722;2023-02-02T06:19:31;102504.94;;;3.21;100.00
54248;BME280;40161;39.768;2.722;2023-02-02T06:21:57;102506.53;;;3.32;100.00
54248;BME280;40161;39.768;2.722;2023-02-02T06:24:23;102485.38;;;3.29;100.00
54248;BME280;40161;39.768;2.722;2023-02-02T06:26:49;102515.47;;;3.53;100.00
54248;BME280;40161;39.768;2.722;2023-02-02T06:29:14;102515.19;;;3.60;100.00
54248;BME280;40161;39.768;2.722;2023-02-02T06:31:40;102515.19;;;3.65;100.00
54248;BME280;40161;39.768;2.722;2023-02-02T06:34:06;102513.25;;;3.71;99.23
54248;BME280;40161;39.768;2.722;2023-02-02T06:36:32;102516.88;;;3.30;96.91
54248;BME280;40161;39.768;2.722;2023-02-02T06:38:58;102528.53;;;3.41;99.29
54248;BME280;40161;39.768;2.722;2023-02-02T06:41:24;102518.72;;;3.55;100.00
54248;BME280;40161;39.768;2.722;2023-02-02T06:43:51;102521.97;;;3.57;99.81
54248;BME280;40161;39.768;2.722;2023-02-02T06:46:16;102531.47;;;3.60;99.49
54248;BME280;40161;39.768;2.722;2023-02-02T06:48:42;102518.22;;;3.48;99.38
54248;BME280;40161;39.768;2.722;2023-02-02T06:51:08;102495.69;;;3.38;99.58
54248;BME280;40161;39.768;2.722;2023-02-02T06:53:34;102542.88;;;3.72;99.51
54248;BME280;40161;39.768;2.722;2023-02-02T06:56:02;102525.53;;;3.48;98.00
54248;BME280;40161;39.768;2.722;2023-02-02T06:58:29;102533.13;;;3.46;98.51
54248;BME280;40161;39.768;2.722;2023-02-02T07:01:03;102532.84;;;3.57;98.13
54248;BME280;40161;39.768;2.722;2023-02-02T07:03:29;102532.31;;;3.50;98.55
54248;BME280;40161;39.768;2.722;2023-02-02T07:05:55;102548.59;;;3.50;97.68
54248;BME280;40161;39.768;2.722;2023-02-02T07:08:20;102538.53;;;3.51;98.77
54248;BME280;40161;39.768;2.722;2023-02-02T07:10:46;102551.88;;;3.42;97.41
54248;BME280;40161;39.768;2.722;2023-02-02T07:13:12;102542.63;;;3.48;98.99
54248;BME280;40161;39.768;2.722;2023-02-02T07:15:38;102555.94;;;3.35;98.49
54248;BME280;40161;39.768;2.722;2023-02-02T07:18:04;102565.72;;;3.41;100.00
54248;BME280;40161;39.768;2.722;2023-02-02T07:20:30;102557.56;;;3.56;99.91
54248;BME280;40161;39.768;2.722;2023-02-02T07:22:55;102554.81;;;3.61;100.00
54248;BME280;40161;39.768;2.722;2023-02-02T07:25:21;102532.56;;;3.59;100.00
54248;BME280;40161;39.768;2.722;2023-02-02T07:27:51;102559.72;;;3.59;98.48
54248;BME280;40161;39.768;2.722;2023-02-02T07:30:17;102558.38;;;3.51;98.93
54248;BME280;40161;39.768;2.722;2023-02-02T07:32:47;102560.84;;;3.38;99.99
54248;BME280;40161;39.768;2.722;2023-02-02T07:35:14;102585.25;;;3.43;100.00
54248;BME280;40161;39.768;2.722;2023-02-02T07:37:40;102580.63;;;3.43;100.00
54248;BME280;40161;39.768;2.722;2023-02-02T07:40:06;102578.16;;;3.67;100.00
54248;BME280;40161;39.768;2.722;2023-02-02T07:42:32;102584.69;;;3.66;100.00
54248;BME280;40161;39.768;2.722;2023-02-02T07:44:57;102590.41;;;3.39;100.00
54248;BME280;40161;39.768;2.722;2023-02-02T07:47:24;102580.91;;;3.26;100.00
54248;BME280;40161;39.768;2.722;2023-02-02T07:49:50;102589.88;;;3.42;100.00
54248;BME280;40161;39.768;2.722;2023-02-02T07:52:15;102594.47;;;3.67;100.00
54248;BME280;40161;39.768;2.722;2023-02-02T07:54:41;102586.56;;;3.71;100.00
54248;BME280;40161;39.768;2.722;2023-02-02T07:57:06;102593.34;;;3.84;100.00
54248;BME280;40161;39.768;2.722;2023-02-02T07:59:32;102598.78;;;3.78;100.00
54248;BME280;40161;39.768;2.722;2023-02-02T08:01:58;102592.81;;;3.61;100.00
54248;BME280;40161;39.768;2.722;2023-02-02T08:04:23;102604.22;;;3.73;100.00
54248;BME280;40161;39.768;2.722;2023-02-02T08:06:49;102597.69;;;3.74;100.00
54248;BME280;40161;39.768;2.722;2023-02-02T08:09:15;102580.31;;;3.86;100.00
54248;BME280;40161;39.768;2.722;2023-02-02T08:11:40;102577.88;;;3.84;100.00
54248;BME280;40161;39.768;2.722;2023-02-02T08:14:06;102591.69;;;4.03;100.00
54248;BME280;40161;39.768;2.722;2023-02-02T08:16:32;102588.41;;;4.06;100.00
54248;BME280;40161;39.768;2.722;2023-02-02T08:18:58;102582.16;;;4.11;100.00
54248;BME280;40161;39.768;2.722;2023-02-02T08:21:24;102575.91;;;4.10;100.00
54248;BME280;40161;39.768;2.722;2023-02-02T08:23:51;102603.47;;;4.43;100.00
54248;BME280;40161;39.768;2.722;2023-02-02T08:26:27;102603.94;;;4.60;100.00
54248;BME280;40161;39.768;2.722;2023-02-02T08:28:55;102607.72;;;4.69;100.00
54248;BME280;40161;39.768;2.722;2023-02-02T08:31:24;102601.19;;;4.70;100.00
54248;BME280;40161;39.768;2.722;2023-02-02T08:33:50;102580.88;;;4.58;100.00
54248;BME280;40161;39.768;2.722;2023-02-02T08:36:21;102607.69;;;4.74;100.00
54248;BME280;40161;39.768;2.722;2023-02-02T08:38:48;102611.50;;;4.79;100.00
54248;BME280;40161;39.768;2.722;2023-02-02T08:41:17;102613.09;;;4.80;100.00
54248;BME280;40161;39.768;2.722;2023-02-02T08:43:42;102583.25;;;4.69;100.00
54248;BME280;40161;39.768;2.722;2023-02-02T08:46:10;102616.88;;;4.89;100.00
54248;BME280;40161;39.768;2.722;2023-02-02T08:48:36;102619.34;;;4.85;100.00
54248;BME280;40161;39.768;2.722;2023-02-02T08:51:02;102585.97;;;4.64;100.00
54248;BME280;40161;39.768;2.722;2023-02-02T08:53:29;102605.53;;;4.71;100.00
54248;BME280;40161;39.768;2.722;2023-02-02T08:56:02;102616.31;;;4.87;100.00
54248;BME280;40161;39.768;2.722;2023-02-02T08:58:28;102594.50;;;4.92;100.00
54248;BME280;40161;39.768;2.722;2023-02-02T09:01:02;102620.53;;;5.13;100.00
54248;BME280;40161;39.768;2.722;2023-02-02T09:03:27;102592.81;;;5.01;100.00
54248;BME280;40161;39.768;2.722;2023-02-02T09:05:53;102623.66;;;5.31;100.00
54248;BME280;40161;39.768;2.722;2023-02-02T09:08:18;102603.31;;;5.18;100.00
54248;BME280;40161;39.768;2.722;2023-02-02T09:10:44;102598.38;;;5.25;100.00
54248;BME280;40161;39.768;2.722;2023-02-02T09:13:09;102579.69;;;5.13;100.00
54248;BME280;40161;39.768;2.722;2023-02-02T09:15:35;102624.63;;;5.45;100.00
54248;BME280;40161;39.768;2.722;2023-02-02T09:18:01;102623.16;;;5.58;100.00
54248;BME280;40161;39.768;2.722;2023-02-02T09:20:26;102595.97;;;5.53;100.00
54248;BME280;40161;39.768;2.722;2023-02-02T09:22:54;102631.09;;;5.83;100.00
54248;BME280;40161;39.768;2.722;2023-02-02T09:25:20;102638.28;;;6.03;100.00
54248;BME280;40161;39.768;2.722;2023-02-02T09:27:46;102638.69;;;6.15;100.00
54248;BME280;40161;39.768;2.722;2023-02-02T09:30:11;102638.00;;;6.29;100.00
54248;BME280;40161;39.768;2.722;2023-02-02T09:32:37;102614.84;;;6.26;100.00
54248;BME280;40161;39.768;2.722;2023-02-02T09:35:03;102642.38;;;6.54;100.00
54248;BME280;40161;39.768;2.722;2023-02-02T09:37:29;102646.59;;;6.65;100.00
54248;BME280;40161;39.768;2.722;2023-02-02T09:39:54;102643.72;;;6.75;100.00
54248;BME280;40161;39.768;2.722;2023-02-02T09:43:23;102631.63;;;6.81;100.00
54248;BME280;40161;39.768;2.722;2023-02-02T09:48:51;102644.19;;;7.20;100.00
54248;BME280;40161;39.768;2.722;2023-02-02T09:51:22;102597.84;;;6.96;100.00
54248;BME280;40161;39.768;2.722;2023-02-02T09:54:00;102647.69;;;7.40;100.00
54248;BME280;40161;39.768;2.722;2023-02-02T09:56:40;102649.97;;;7.51;100.00
54248;BME280;40161;39.768;2.722;2023-02-02T09:59:38;102643.81;;;7.59;100.00
54248;BME280;40161;39.768;2.722;2023-02-02T10:02:30;102652.84;;;7.74;100.00
54248;BME280;40161;39.768;2.722;2023-02-02T10:05:07;102649.34;;;7.87;100.00
54248;BME280;40161;39.768;2.722;2023-02-02T10:07:43;102652.00;;;7.92;100.00
54248;BME280;40161;39.768;2.722;2023-02-02T10:10:31;102653.84;;;8.11;100.00
54248;BME280;40161;39.768;2.722;2023-02-02T10:13:02;102635.81;;;8.09;100.00
54248;BME280;40161;39.768;2.722;2023-02-02T10:19:02;102645.84;;;8.28;100.00
54248;BME280;40161;39.768;2.722;2023-02-02T10:21:49;102666.75;;;8.51;100.00
54248;BME280;40161;39.768;2.722;2023-02-02T10:24:25;102655.00;;;8.65;100.00
54248;BME280;40161;39.768;2.722;2023-02-02T10:26:56;102640.38;;;8.69;100.00
54248;BME280;40161;39.768;2.722;2023-02-02T10:42:41;102608.53;;;9.10;100.00
54248;BME280;40161;39.768;2.722;2023-02-02T10:45:31;102646.03;;;9.45;100.00
54248;BME280;40161;39.768;2.722;2023-02-02T10:47:57;102646.28;;;9.58;100.00
54248;BME280;40161;39.768;2.722;2023-02-02T10:50:23;102609.66;;;9.54;100.00
54248;BME280;40161;39.768;2.722;2023-02-02T10:52:53;102621.41;;;9.77;99.95
54248;BME280;40161;39.768;2.722;2023-02-02T11:03:13;102612.84;;;10.09;95.54
54248;BME280;40161;39.768;2.722;2023-02-02T11:05:39;102608.97;;;10.10;94.19
54248;BME280;40161;39.768;2.722;2023-02-02T11:08:31;102607.09;;;10.19;94.33
54248;BME280;40161;39.768;2.722;2023-02-02T11:11:09;102597.41;;;10.22;92.45
54248;BME280;40161;39.768;2.722;2023-02-02T11:13:40;102565.25;;;10.14;91.94
54248;BME280;40161;39.768;2.722;2023-02-02T11:18:43;102583.09;;;10.34;89.81
54248;BME280;40161;39.768;2.722;2023-02-02T11:26:47;102583.16;;;10.68;84.63
54248;BME280;40161;39.768;2.722;2023-02-02T11:29:17;102582.19;;;10.73;82.98
54248;BME280;40161;39.768;2.722;2023-02-02T11:31:48;102574.94;;;10.77;81.41
54248;BME280;40161;39.768;2.722;2023-02-02T11:34:24;102567.34;;;10.91;81.23
54248;BME280;40161;39.768;2.722;2023-02-02T11:39:26;102568.78;;;11.06;78.12
54248;BME280;40161;39.768;2.722;2023-02-02T11:42:00;102550.19;;;11.03;76.82
54248;BME280;40161;39.768;2.722;2023-02-02T11:44:29;102546.97;;;11.10;76.63
54248;BME280;40161;39.768;2.722;2023-02-02T11:46:57;102512.69;;;11.07;74.25
54248;BME280;40161;39.768;2.722;2023-02-02T11:49:23;102552.88;;;11.38;74.12
54248;BME280;40161;39.768;2.722;2023-02-02T11:52:01;102544.78;;;11.41;73.37
54248;BME280;40161;39.768;2.722;2023-02-02T11:54:34;102540.88;;;11.51;71.94
54248;BME280;40161;39.768;2.722;2023-02-02T11:57:03;102538.13;;;11.60;69.59
54248;BME280;40161;39.768;2.722;2023-02-02T11:59:36;102494.84;;;11.39;68.99
54248;BME280;40161;39.768;2.722;2023-02-02T12:04:36;102539.38;;;11.71;67.08
54248;BME280;40161;39.768;2.722;2023-02-02T12:09:51;102508.63;;;11.69;66.54
54248;BME280;40161;39.768;2.722;2023-02-02T12:21:02;102528.13;;;12.23;69.11
54248;BME280;40161;39.768;2.722;2023-02-02T12:23:34;102513.88;;;12.21;69.92
54248;BME280;40161;39.768;2.722;2023-02-02T12:26:13;102510.53;;;12.16;67.95
54248;BME280;40161;39.768;2.722;2023-02-02T12:36:49;102450.81;;;12.07;68.11
54248;BME280;40161;39.768;2.722;2023-02-02T12:45:31;102490.88;;;12.47;65.04
54248;BME280;40161;39.768;2.722;2023-02-02T12:53:41;102439.75;;;12.37;65.51
54248;BME280;40161;39.768;2.722;2023-02-02T12:58:44;102448.56;;;12.51;64.10
54248;BME280;40161;39.768;2.722;2023-02-02T13:12:10;102457.19;;;12.62;64.57
54248;BME280;40161;39.768;2.722;2023-02-02T13:17:14;102462.78;;;12.74;65.09
54248;BME280;40161;39.768;2.722;2023-02-02T13:19:48;102451.63;;;12.71;64.53
54248;BME280;40161;39.768;2.722;2023-02-02T13:22:28;102459.66;;;12.76;66.77
54248;BME280;40161;39.768;2.722;2023-02-02T13:24:59;102462.28;;;12.72;64.87
54248;BME280;40161;39.768;2.722;2023-02-02T13:27:27;102436.66;;;12.59;65.23
54248;BME280;40161;39.768;2.722;2023-02-02T13:30:03;102415.63;;;12.55;66.24
54248;BME280;40161;39.768;2.722;2023-02-02T13:32:35;102415.88;;;12.62;66.58
54248;BME280;40161;39.768;2.722;2023-02-02T13:35:12;102439.44;;;12.72;67.34
54248;BME280;40161;39.768;2.722;2023-02-02T13:38:06;102456.03;;;12.84;68.65
54248;BME280;40161;39.768;2.722;2023-02-02T13:40:41;102426.72;;;12.67;69.26
54248;BME280;40161;39.768;2.722;2023-02-02T13:43:19;102457.03;;;12.79;70.77
54248;BME280;40161;39.768;2.722;2023-02-02T13:51:49;102450.72;;;12.79;73.32
54248;BME280;40161;39.768;2.722;2023-02-02T13:57:35;102441.88;;;12.73;73.79
54248;BME280;40161;39.768;2.722;2023-02-02T14:00:18;102457.94;;;12.71;74.06
54248;BME280;40161;39.768;2.722;2023-02-02T14:05:28;102405.72;;;12.42;73.41
54248;BME280;40161;39.768;2.722;2023-02-02T14:08:04;102436.88;;;12.54;73.85
54248;BME280;40161;39.768;2.722;2023-02-02T14:10:42;102430.88;;;12.52;72.18
54248;BME280;40161;39.768;2.722;2023-02-02T14:15:59;102452.63;;;12.66;71.46
54248;BME280;40161;39.768;2.722;2023-02-02T14:26:58;102412.63;;;12.48;72.72
54248;BME280;40161;39.768;2.722;2023-02-02T14:34:37;102433.06;;;12.47;72.56
54248;BME280;40161;39.768;2.722;2023-02-02T14:45:31;102449.88;;;12.66;69.56
54248;BME280;40161;39.768;2.722;2023-02-02T14:48:07;102455.72;;;12.65;70.18
54248;BME280;40161;39.768;2.722;2023-02-02T14:50:45;102437.66;;;12.55;69.59
54248;BME280;40161;39.768;2.722;2023-02-02T14:58:42;102389.56;;;12.19;70.15
54248;BME280;40161;39.768;2.722;2023-02-02T15:06:32;102473.41;;;12.64;71.18
54248;BME280;40161;39.768;2.722;2023-02-02T15:14:25;102432.97;;;12.34;71.59
54248;BME280;40161;39.768;2.722;2023-02-02T15:16:54;102440.38;;;12.43;71.46
54248;BME280;40161;39.768;2.722;2023-02-02T15:19:33;102449.56;;;12.47;72.75
54248;BME280;40161;39.768;2.722;2023-02-02T15:22:19;102433.78;;;12.35;72.43
54248;BME280;40161;39.768;2.722;2023-02-02T15:24:49;102459.66;;;12.43;73.05
54248;BME280;40161;39.768;2.722;2023-02-02T15:27:16;102466.75;;;12.44;73.83
54248;BME280;40161;39.768;2.722;2023-02-02T15:29:45;102357.06;;;11.71;74.06
54248;BME280;40161;39.768;2.722;2023-02-02T15:32:18;102473.59;;;12.38;74.26
54248;BME280;40161;39.768;2.722;2023-02-02T15:34:49;102466.00;;;12.34;74.50
54248;BME280;40161;39.768;2.722;2023-02-02T15:37:20;102453.66;;;12.20;74.46
54248;BME280;40161;39.768;2.722;2023-02-02T15:39:51;102468.84;;;12.26;74.46